Time;durP1;ratioP1;P1;durP2;ratioP2;P2;SDS_P1;SDS_P2;PMS_P1;PMS_P2;Temp;Humidity;BMP_temperature;BMP_pressure;BME280_temperature;BME280_humidity;BME280_pressure;Samples;Min_cycle;Max_cycle;Signal;HPM_P1;HPM_P2
2021/03/22 00:00:48;;;;;;;10.00;3.83;;;;;;;-0.33;82.20;100239.49;1697858;82;27595;-79
2021/03/22 00:03:18;;;;;;;11.75;3.02;;;;;;;-0.34;82.30;100239.16;1697905;83;26081;-80
2021/03/22 00:05:45;;;;;;;6.22;2.80;;;;;;;-0.38;82.17;100242.50;1714659;82;25952;-79
2021/03/22 00:08:13;;;;;;;7.37;3.62;;;;;;;-0.43;82.25;100254.37;1666878;82;26283;-79
2021/03/22 00:10:44;;;;;;;11.57;3.70;;;;;;;-0.45;82.21;100255.80;1695881;82;25757;-80
2021/03/22 00:13:16;;;;;;;11.18;3.58;;;;;;;-0.48;82.09;100256.53;1678240;82;27296;-79
2021/03/22 00:15:45;;;;;;;8.98;3.77;;;;;;;-0.49;82.35;100264.90;1712829;82;26064;-80
2021/03/22 00:18:17;;;;;;;10.65;3.52;;;;;;;-0.58;82.20;100264.36;1680085;82;25835;-80
2021/03/22 00:20:45;;;;;;;8.90;3.62;;;;;;;-0.58;82.20;100264.36;1699121;81;25857;-80
2021/03/22 00:23:12;;;;;;;6.90;2.95;;;;;;;-0.56;82.15;100276.06;1692832;82;25792;-79
2021/03/22 00:25:40;;;;;;;8.00;2.83;;;;;;;-0.58;82.22;100267.46;1706927;81;28358;-80
2021/03/22 00:28:09;;;;;;;8.08;2.92;;;;;;;-0.57;82.31;100272.59;1684865;82;25805;-80
2021/03/22 00:30:40;;;;;;;6.97;2.65;;;;;;;-0.57;82.22;100280.95;1694216;81;25428;-80
2021/03/22 00:33:09;;;;;;;10.30;3.85;;;;;;;-0.60;82.28;100279.43;1678866;82;26429;-80
2021/03/22 00:35:36;;;;;;;8.60;3.05;;;;;;;-0.61;82.25;100275.58;1742002;81;25871;-80
2021/03/22 00:38:05;;;;;;;9.55;2.98;;;;;;;-0.61;82.28;100278.21;1693509;82;27549;-80
2021/03/22 00:40:36;;;;;;;8.03;2.90;;;;;;;-0.61;82.42;100282.16;1680250;81;26134;-80
2021/03/22 00:43:04;;;;;;;7.60;3.08;;;;;;;-0.62;82.19;100277.87;1682377;81;26418;-80
2021/03/22 00:45:32;;;;;;;11.22;3.40;;;;;;;-0.64;82.25;100281.92;1716451;81;26477;-79
2021/03/22 00:47:59;;;;;;;12.03;3.27;;;;;;;-0.64;82.31;100277.97;1667235;82;25740;-80
2021/03/22 00:50:37;;;;;;;9.95;3.02;;;;;;;-0.66;82.11;100281.72;1700637;82;28426;-79
2021/03/22 00:53:07;;;;;;;9.35;2.87;;;;;;;-0.67;82.24;100288.77;1725982;81;25934;-79
2021/03/22 00:55:35;;;;;;;8.93;2.90;;;;;;;-0.67;82.08;100285.29;1728696;82;25761;-79
2021/03/22 00:58:04;;;;;;;10.03;3.55;;;;;;;-0.66;82.14;100289.61;1659699;82;26510;-80
2021/03/22 01:00:39;;;;;;;8.63;3.02;;;;;;;-0.65;82.29;100289.95;1701472;82;26032;-80
2021/03/22 01:03:11;;;;;;;9.35;3.15;;;;;;;-0.67;82.24;100284.81;1674594;82;27104;-80
2021/03/22 01:05:39;;;;;;;11.25;3.62;;;;;;;-0.71;82.04;100287.34;1724963;81;26508;-80
2021/03/22 01:08:07;;;;;;;8.48;3.62;;;;;;;-0.71;82.16;100289.13;1692052;82;25856;-80
2021/03/22 01:10:43;;;;;;;13.62;3.42;;;;;;;-0.69;82.23;100288.52;1687429;81;25903;-80
2021/03/22 01:13:19;;;;;;;13.80;4.20;;;;;;;-0.69;82.14;100292.00;1706740;81;25834;-80
2021/03/22 01:15:47;;;;;;;8.90;3.30;;;;;;;-0.68;82.08;100287.58;1738309;81;28499;-80
2021/03/22 01:18:18;;;;;;;10.08;3.58;;;;;;;-0.69;82.02;100288.52;1644988;82;25809;-80
2021/03/22 01:20:48;;;;;;;;;;;;;;;-0.70;82.23;100291.63;1696727;84;25858;-80
2021/03/22 01:23:17;;;;;;;7.45;2.92;;;;;;;-0.72;82.20;100288.28;1703591;81;35015;-79
2021/03/22 01:25:44;;;;;;;6.22;3.10;;;;;;;-0.77;82.57;100279.44;1697005;82;26188;-80
2021/03/22 01:28:14;;;;;;;9.90;3.12;;;;;;;-0.75;82.47;100288.55;1676252;83;27510;-79
2021/03/22 01:30:53;;;;;;;8.67;3.10;;;;;;;-0.75;82.58;100288.55;1690018;83;26000;-79
2021/03/22 01:33:26;;;;;;;10.48;3.95;;;;;;;-0.78;82.33;100287.47;1669961;84;26079;-79
2021/03/22 01:36:00;;;;;;;9.68;3.80;;;;;;;-0.81;82.50;100295.11;1664601;85;26431;-80
2021/03/22 01:38:29;;;;;;;8.48;3.30;;;;;;;-0.82;82.45;100294.77;1668885;85;25803;-80
2021/03/22 01:41:37;;;;;;;16.93;4.67;;;;;;;-0.83;82.33;100294.40;1695446;83;27608;-80
2021/03/22 01:44:27;;;;;;;9.63;4.03;;;;;;;-0.83;82.41;100290.45;1672900;83;26105;-79
2021/03/22 01:46:59;;;;;;;8.33;3.47;;;;;;;-0.83;82.44;100296.19;1695926;83;25939;-80
2021/03/22 01:49:31;;;;;;;11.30;4.08;;;;;;;-0.84;82.26;100295.84;1703055;83;25909;-80
2021/03/22 01:52:00;;;;;;;12.23;3.65;;;;;;;-0.91;81.97;100290.23;1696302;82;26102;-80
2021/03/22 01:54:28;;;;;;;15.38;4.80;;;;;;;-0.91;81.97;100290.23;1692318;83;27501;-80
2021/03/22 01:56:59;;;;;;;12.13;4.47;;;;;;;-0.86;82.33;100295.98;1676207;84;25833;-80
2021/03/22 01:59:30;;;;;;;12.20;4.15;;;;;;;-0.85;82.36;100304.20;1671457;84;26673;-80
2021/03/22 02:02:02;;;;;;;13.98;4.15;;;;;;;-0.84;82.42;100302.42;1677043;84;26167;-80
2021/03/22 02:04:30;;;;;;;10.80;4.15;;;;;;;-0.86;82.35;100306.49;1685934;83;25951;-80
2021/03/22 02:06:59;;;;;;;9.95;3.85;;;;;;;-0.86;82.44;100305.18;1653841;84;27345;-80
2021/03/22 02:09:27;;;;;;;17.95;4.75;;;;;;;-0.87;82.67;100306.59;1674561;84;25742;-80
2021/03/22 02:11:55;;;;;;;8.70;4.08;;;;;;;-0.87;82.39;100313.16;1679888;84;25849;-79
2021/03/22 02:14:22;;;;;;;9.93;3.55;;;;;;;-0.85;82.37;100315.20;1708508;83;26138;-79
2021/03/22 02:17:14;;;;;;;11.78;4.15;;;;;;;-0.80;82.37;100305.16;1689793;83;25953;-80
2021/03/22 02:20:08;;;;;;;17.23;4.40;;;;;;;-0.76;82.29;100306.58;1671192;84;28440;-79
2021/03/22 02:23:27;;;;;;;11.93;4.05;;;;;;;-0.71;82.17;100312.33;1690590;83;26058;-79
2021/03/22 02:26:09;;;;;;;10.53;3.42;;;;;;;-0.66;82.15;100315.91;1676692;83;25797;-80
2021/03/22 02:29:21;;;;;;;12.15;4.67;;;;;;;-0.63;81.97;100316.48;1691256;81;25814;-81
2021/03/22 02:32:11;;;;;;;9.78;3.10;;;;;;;-0.62;81.79;100312.07;1718272;81;26070;-80
2021/03/22 02:34:59;;;;;;;10.68;3.77;;;;;;;-0.67;81.66;100311.12;1707137;81;28288;-80
2021/03/22 02:37:49;;;;;;;12.55;4.47;;;;;;;-0.66;81.57;100316.72;1688170;81;26515;-80
2021/03/22 02:40:39;;;;;;;13.00;4.27;;;;;;;-0.67;81.62;100316.84;1721741;81;26425;-80
2021/03/22 02:43:07;;;;;;;10.78;3.45;;;;;;;-0.67;81.44;100322.95;1703888;81;25546;-79
2021/03/22 02:45:38;;;;;;;14.73;5.12;;;;;;;-0.68;81.22;100318.63;1669987;81;25745;-80
2021/03/22 02:48:08;;;;;;;11.88;4.70;;;;;;;-0.67;81.13;100316.84;1687649;81;27620;-80
2021/03/22 02:50:39;;;;;;;15.10;4.20;;;;;;;-0.69;81.09;100321.39;1687374;81;25894;-79
2021/03/22 02:53:21;;;;;;;12.65;3.65;;;;;;;-0.70;81.09;100325.81;1704372;82;25875;-80
2021/03/22 02:56:00;;;;;;;13.20;5.05;;;;;;;-0.68;81.03;100327.03;1702591;82;26500;-80
2021/03/22 02:58:47;;;;;;;14.83;5.45;;;;;;;-0.66;81.17;100334.31;1685022;82;25816;-80
2021/03/22 03:01:38;;;;;;;13.30;4.60;;;;;;;-0.64;80.85;100333.20;1700401;82;27117;-80
2021/03/22 03:04:09;;;;;;;9.53;4.47;;;;;;;-0.64;81.11;100341.61;1705426;81;25863;-80
2021/03/22 03:06:45;;;;;;;;;;;;;;;-0.65;80.97;100335.50;1689187;82;25800;-80
2021/03/22 03:09:13;;;;;;;16.05;4.67;;;;;;;-0.67;80.96;100337.41;1721972;81;26250;-79
2021/03/22 03:11:41;;;;;;;14.10;4.55;;;;;;;-0.82;80.98;100323.70;1696127;81;25874;-79
2021/03/22 03:14:08;;;;;;;13.58;4.90;;;;;;;-0.74;80.86;100345.90;1673169;81;27650;-79
2021/03/22 03:16:36;;;;;;;12.07;4.60;;;;;;;-0.75;80.70;100349.03;1677809;84;25851;-80
2021/03/22 03:19:04;;;;;;;11.83;4.55;;;;;;;-0.82;80.57;100342.57;1696768;81;25835;-80
2021/03/22 03:21:33;;;;;;;16.25;4.85;;;;;;;-0.82;80.62;100350.46;1732312;81;25770;-80
2021/03/22 03:24:02;;;;;;;15.32;5.10;;;;;;;-0.83;80.66;100341.73;1660032;84;25406;-80
2021/03/22 03:26:29;;;;;;;14.80;5.50;;;;;;;-0.83;80.51;100346.98;1714743;81;27576;-80
2021/03/22 03:28:57;;;;;;;16.62;4.97;;;;;;;-0.81;80.68;100354.75;1700214;82;25868;-80
2021/03/22 03:31:25;;;;;;;16.00;4.90;;;;;;;-0.82;80.68;100354.41;1732511;81;25807;-80
2021/03/22 03:33:52;;;;;;;17.20;5.72;;;;;;;-0.88;80.59;100364.09;1683424;81;25549;-80
2021/03/22 03:36:19;;;;;;;14.78;5.28;;;;;;;-0.94;80.56;100361.45;1699245;81;25856;-80
2021/03/22 03:38:47;;;;;;;15.60;4.85;;;;;;;-1.00;80.51;100367.19;1684392;82;27348;-80
2021/03/22 03:41:14;;;;;;;13.35;5.00;;;;;;;-1.06;80.75;100357.62;1723277;81;25809;-80
2021/03/22 03:43:41;;;;;;;12.50;5.33;;;;;;;-0.98;80.75;100370.53;1637464;82;26339;-80
2021/03/22 03:46:09;;;;;;;16.73;5.17;;;;;;;-0.94;80.74;100370.65;1691133;82;26287;-80
2021/03/22 03:48:36;;;;;;;15.63;5.50;;;;;;;-0.91;80.74;100370.89;1663683;83;26471;-80
2021/03/22 03:51:04;;;;;;;20.37;5.53;;;;;;;-0.89;80.73;100372.45;1701916;81;27548;-80
2021/03/22 03:53:32;;;;;;;15.80;5.55;;;;;;;-0.88;80.76;100364.91;1664642;81;25846;-80
2021/03/22 03:56:01;;;;;;;19.32;6.00;;;;;;;-0.85;80.86;100362.52;1665278;84;26419;-80
2021/03/22 03:58:28;;;;;;;13.30;5.92;;;;;;;-0.84;80.86;100370.31;1677114;83;25847;-80
2021/03/22 04:00:56;;;;;;;16.37;6.62;;;;;;;-0.82;80.92;100367.08;1702394;81;25773;-79
2021/03/22 04:03:34;;;;;;;12.13;6.30;;;;;;;-0.79;81.06;100368.61;1673832;84;27616;-81
2021/03/22 04:06:22;;;;;;;18.20;6.42;;;;;;;-0.77;81.04;100369.83;1695685;81;25962;-80
2021/03/22 04:08:55;;;;;;;14.53;6.30;;;;;;;-0.77;81.05;100372.80;1675312;84;25511;-80
2021/03/22 04:11:26;;;;;;;19.75;6.47;;;;;;;-0.75;80.95;100378.43;1724529;81;25806;-80
2021/03/22 04:13:54;;;;;;;16.60;6.60;;;;;;;-0.74;80.98;100377.45;1632566;85;25822;-80
2021/03/22 04:16:23;;;;;;;16.85;6.75;;;;;;;-0.72;81.00;100380.80;1680232;83;27717;-79
2021/03/22 04:18:51;;;;;;;18.62;6.85;;;;;;;-0.69;80.90;100380.57;1699483;81;25884;-80
2021/03/22 04:21:23;;;;;;;15.85;6.30;;;;;;;-0.68;81.03;100382.26;1722936;81;25829;-80
2021/03/22 04:23:52;;;;;;;24.27;7.42;;;;;;;-0.67;81.03;100390.02;1651872;82;25880;-80
2021/03/22 04:26:21;;;;;;;16.48;7.62;;;;;;;-0.67;81.09;100385.23;1684696;81;25845;-80
2021/03/22 04:28:48;;;;;;;14.15;7.00;;;;;;;-0.67;80.92;100387.39;1697376;81;27346;-80
2021/03/22 04:31:18;;;;;;;15.72;7.05;;;;;;;-0.75;80.98;100378.43;1708584;82;26167;-80
2021/03/22 04:33:46;;;;;;;14.50;6.37;;;;;;;-0.72;80.96;100386.91;1649994;82;25800;-80
2021/03/22 04:36:14;;;;;;;14.98;6.70;;;;;;;-0.78;80.94;100384.76;1704971;83;25739;-80
2021/03/22 04:38:41;;;;;;;15.32;6.97;;;;;;;-0.80;80.95;100386.67;1684033;83;26480;-80
2021/03/22 04:41:09;;;;;;;15.75;5.90;;;;;;;-0.81;81.08;100384.98;1718614;81;27537;-80
2021/03/22 04:43:36;;;;;;;21.00;7.28;;;;;;;-0.82;81.07;100390.75;1648104;81;26207;-80
2021/03/22 04:46:04;;;;;;;16.20;6.95;;;;;;;-0.85;81.06;100383.09;1685564;81;26363;-80
2021/03/22 04:48:31;;;;;;;19.17;9.00;;;;;;;-0.83;81.26;100390.38;1683609;82;26288;-80
2021/03/22 04:50:58;;;;;;;17.92;7.20;;;;;;;-0.76;81.51;100394.67;1724693;81;25845;-80
2021/03/22 04:53:26;;;;;;;17.67;7.15;;;;;;;-0.76;81.40;100382.84;1656574;83;27552;-80
2021/03/22 04:55:54;;;;;;;19.42;6.92;;;;;;;-0.70;81.39;100394.19;1662139;81;26615;-80
2021/03/22 04:58:21;;;;;;;24.27;10.18;;;;;;;-0.71;81.30;100391.22;1691877;82;25858;-80
2021/03/22 05:00:48;;;;;;;18.85;7.78;;;;;;;-0.75;81.39;100392.42;1720702;81;26642;-80
2021/03/22 05:03:21;;;;;;;15.93;6.83;;;;;;;-0.75;81.47;100390.27;1665460;81;26094;-80
2021/03/22 05:05:48;;;;;;;24.27;7.12;;;;;;;-0.77;81.61;100399.59;1693620;83;28429;-80
2021/03/22 05:08:19;;;;;;;16.65;7.28;;;;;;;-0.77;81.65;100402.22;1685723;81;25861;-80
2021/03/22 05:10:50;;;;;;;20.45;6.58;;;;;;;-0.72;81.69;100404.47;1718997;82;25947;-80
2021/03/22 05:13:20;;;;;;;17.12;6.47;;;;;;;-0.73;81.63;100407.59;1685083;83;26450;-80
2021/03/22 05:15:48;;;;;;;13.95;6.87;;;;;;;-0.72;81.66;100416.30;1689583;83;25414;-80
2021/03/22 05:18:16;;;;;;;20.75;7.42;;;;;;;-0.68;81.74;100417.77;1676045;82;28094;-80
2021/03/22 05:20:48;;;;;;;16.87;7.95;;;;;;;-0.65;81.73;100405.67;1714412;81;25718;-79
2021/03/22 05:23:20;;;;;;;18.87;7.72;;;;;;;-0.62;81.72;100413.33;1689138;81;25994;-80
2021/03/22 05:25:49;;;;;;;17.07;8.23;;;;;;;-0.61;81.64;100411.05;1702806;81;25828;-80
2021/03/22 05:28:17;;;;;;;27.50;13.60;;;;;;;-0.59;81.60;100407.81;1730923;81;26257;-79
2021/03/22 05:30:45;;;;;;;30.88;13.35;;;;;;;-0.58;81.77;100400.30;1662663;84;27623;-80
2021/03/22 05:33:16;;;;;;;25.97;9.78;;;;;;;-0.57;82.01;100400.16;1631684;84;26110;-79
2021/03/22 05:35:47;;;;;;;19.15;8.53;;;;;;;-0.54;81.98;100406.98;1673510;81;25885;-80
2021/03/22 05:38:15;;;;;;;28.47;10.90;;;;;;;-0.49;82.04;100395.63;1644168;84;26026;-80
2021/03/22 05:40:53;;;;;;;24.32;9.25;;;;;;;-0.48;82.05;100402.55;1725473;81;25901;-80
2021/03/22 05:43:26;;;;;;;21.65;8.43;;;;;;;-0.47;82.03;100401.60;1658160;84;27553;-80
2021/03/22 05:46:16;;;;;;;23.57;10.00;;;;;;;-0.43;82.15;100404.34;1640188;85;25945;-80
2021/03/22 05:49:18;;;;;;;22.62;9.40;;;;;;;-0.44;82.16;100403.97;1719506;81;32818;-80
2021/03/22 05:52:11;;;;;;;25.25;8.30;;;;;;;-0.40;82.25;100401.45;1648938;84;26601;-80
2021/03/22 05:55:12;;;;;;;21.97;9.33;;;;;;;-0.38;82.26;100409.59;1669913;84;26450;-80
2021/03/22 05:57:51;;;;;;;23.15;10.48;;;;;;;-0.35;82.29;100410.67;1708966;81;27616;-80
2021/03/22 06:00:38;;;;;;;22.77;10.35;;;;;;;-0.33;82.41;100415.80;1638711;85;25792;-80
2021/03/22 06:03:29;;;;;;;22.48;10.40;;;;;;;-0.31;82.36;100415.20;1634645;84;25938;-80
2021/03/22 06:06:08;;;;;;;26.90;11.63;;;;;;;-0.29;82.47;100413.28;1666073;84;25917;-80
2021/03/22 06:08:55;;;;;;;21.68;10.43;;;;;;;-0.24;82.59;100418.55;1709800;81;25896;-80
2021/03/22 06:11:36;;;;;;;23.35;11.00;;;;;;;-0.18;82.72;100422.48;1694780;81;28499;-82
2021/03/22 06:14:12;;;;;;;24.15;11.00;;;;;;;-0.14;82.52;100430.48;1696056;81;25866;-82
2021/03/22 06:16:47;;;;;;;32.13;16.80;;;;;;;-0.09;82.56;100433.59;1663967;84;25850;-80
2021/03/22 06:19:17;;;;;;;34.63;17.65;;;;;;;-0.07;82.51;100432.52;1704642;81;26201;-80
2021/03/22 06:21:48;;;;;;;32.80;18.12;;;;;;;-0.04;82.59;100432.72;1692474;83;25899;-80
2021/03/22 06:24:27;;;;;;;30.37;15.18;;;;;;;0.02;82.57;100434.05;1706935;81;27323;-79
2021/03/22 06:26:59;;;;;;;38.10;20.32;;;;;;;0.06;82.52;100435.47;1653359;84;26173;-79
2021/03/22 06:29:37;;;;;;;33.02;15.90;;;;;;;0.10;82.53;100436.89;1620274;83;26007;-79
2021/03/22 06:32:19;;;;;;;26.60;11.18;;;;;;;0.13;82.57;100434.83;1703659;82;25815;-79
2021/03/22 06:34:57;;;;;;;27.62;11.60;;;;;;;0.19;82.54;100444.89;1672279;82;25858;-79
2021/03/22 06:37:32;;;;;;;31.05;11.35;;;;;;;0.22;82.49;100453.00;1689980;83;27539;-79
2021/03/22 06:40:10;;;;;;;21.55;10.50;;;;;;;0.29;82.47;100449.76;1685360;83;25810;-79
2021/03/22 06:42:39;;;;;;;24.92;10.00;;;;;;;0.37;82.45;100456.55;1697759;82;25953;-78
2021/03/22 06:45:34;;;;;;;21.48;10.58;;;;;;;0.43;82.43;100457.36;1676428;83;26501;-79
2021/03/22 06:48:29;;;;;;;24.10;10.45;;;;;;;0.50;82.39;100462.96;1690942;82;25834;-79
2021/03/22 06:51:11;;;;;;;22.85;10.55;;;;;;;0.56;82.30;100468.56;1688868;83;27616;-79
2021/03/22 06:53:51;;;;;;;32.00;15.23;;;;;;;0.63;82.22;100476.34;1709873;82;25872;-79
2021/03/22 06:56:36;;;;;;;33.35;16.55;;;;;;;0.67;82.11;100471.16;1669394;83;25855;-79
2021/03/22 06:59:19;;;;;;;31.60;12.55;;;;;;;0.73;82.20;100464.53;1706645;83;25826;-79
2021/03/22 07:01:50;;;;;;;34.53;11.18;;;;;;;0.79;82.19;100472.77;1669341;84;25812;-79
2021/03/22 07:04:35;;;;;;;22.17;9.60;;;;;;;0.89;82.10;100477.28;1668441;84;27671;-79
2021/03/22 07:07:19;;;;;;;20.60;9.10;;;;;;;0.93;81.99;100484.81;1681839;83;25769;-79
2021/03/22 07:09:55;;;;;;;26.52;9.75;;;;;;;0.94;81.79;100486.97;1694441;82;25662;-79
2021/03/22 07:12:36;;;;;;;20.25;8.80;;;;;;;0.97;81.48;100490.18;1709161;83;25858;-79
2021/03/22 07:15:22;;;;;;;22.27;9.33;;;;;;;1.01;81.54;100485.47;1681155;81;25769;-79
2021/03/22 07:18:15;;;;;;;19.87;9.35;;;;;;;1.08;81.62;100472.98;1693643;81;28258;-79
2021/03/22 07:20:48;;;;;;;18.15;8.10;;;;;;;1.21;81.87;100487.28;1716978;81;25772;-79
2021/03/22 07:23:30;;;;;;;17.73;9.15;;;;;;;1.31;81.75;100483.73;1659553;83;26087;-79
2021/03/22 07:26:18;;;;;;;27.48;9.73;;;;;;;1.35;81.92;100492.20;1687848;83;25617;-79
2021/03/22 07:29:11;;;;;;;18.67;8.55;;;;;;;1.39;81.69;100493.64;1655398;81;26071;-80
2021/03/22 07:32:01;;;;;;;22.93;9.88;;;;;;;1.45;81.15;100495.76;1707048;83;28293;-79
2021/03/22 07:35:17;;;;;;;21.55;8.60;;;;;;;1.46;81.07;100492.98;1707501;82;25955;-80
2021/03/22 07:38:00;;;;;;;23.85;10.30;;;;;;;1.52;81.26;100494.24;1691962;82;25784;-79
2021/03/22 07:40:54;;;;;;;21.50;10.48;;;;;;;1.58;80.91;100497.70;1687224;83;25946;-79
2021/03/22 07:43:39;;;;;;;22.93;10.43;;;;;;;1.63;80.70;100511.80;1706180;83;25899;-80
2021/03/22 07:46:14;;;;;;;20.10;8.98;;;;;;;1.77;80.81;100510.14;1708794;82;26873;-79
2021/03/22 07:49:19;;;;;;;17.70;7.90;;;;;;;1.93;81.30;100510.47;1687152;83;25953;-79
2021/03/22 07:52:19;;;;;;;22.00;7.55;;;;;;;2.07;80.86;100512.75;1708533;83;26433;-79
2021/03/22 07:55:18;;;;;;;18.27;9.00;;;;;;;2.19;81.32;100513.83;1713401;83;26413;-79
2021/03/22 07:58:39;;;;;;;22.82;10.20;;;;;;;2.27;80.34;100511.33;1684932;83;26083;-80
2021/03/22 08:01:35;;;;;;;21.82;8.75;;;;;;;2.32;79.79;100509.61;1738059;81;27585;-79
2021/03/22 08:04:13;;;;;;;23.07;9.85;;;;;;;2.33;79.56;100512.11;1678421;82;25838;-80
2021/03/22 08:07:17;;;;;;;23.70;9.15;;;;;;;2.45;79.38;100514.16;1705348;83;26480;-79
2021/03/22 08:10:01;;;;;;;18.85;8.48;;;;;;;2.51;78.40;100519.37;1690158;83;25789;-79
2021/03/22 08:12:39;;;;;;;18.45;7.75;;;;;;;2.53;79.05;100520.06;1686697;82;25885;-79
2021/03/22 08:15:33;;;;;;;21.00;8.28;;;;;;;2.55;78.17;100526.89;1679380;83;27350;-79
2021/03/22 08:18:18;;;;;;;15.15;7.78;;;;;;;2.53;77.27;100520.06;1708054;81;25891;-80
2021/03/22 08:21:23;;;;;;;18.10;7.65;;;;;;;2.52;77.50;100527.66;1704006;81;25766;-79
2021/03/22 08:23:55;;;;;;;18.35;8.45;;;;;;;2.57;77.71;100523.62;1709343;81;25875;-79
2021/03/22 08:26:53;;;;;;;17.50;7.83;;;;;;;2.65;77.69;100534.84;1691169;83;25742;-78
2021/03/22 08:29:36;;;;;;;20.17;7.42;;;;;;;2.68;76.78;100531.91;1685971;83;27618;-79
2021/03/22 08:32:31;;;;;;;16.00;8.60;;;;;;;2.71;76.90;100535.61;1684130;82;26173;-79
2021/03/22 08:35:38;;;;;;;17.85;8.68;;;;;;;2.72;76.54;100538.59;1676531;84;25450;-79
2021/03/22 08:38:16;;;;;;;15.72;8.60;;;;;;;2.68;76.49;100545.98;1663896;84;26105;-79
2021/03/22 08:40:54;;;;;;;17.73;8.33;;;;;;;2.72;77.20;100551.81;1679237;83;25776;-79
2021/03/22 08:43:52;;;;;;;22.25;9.05;;;;;;;2.78;77.03;100551.29;1678802;83;28176;-79
2021/03/22 08:46:46;;;;;;;19.00;8.58;;;;;;;2.84;77.03;100555.55;1692863;83;26528;-78
2021/03/22 08:49:58;;;;;;;17.05;8.65;;;;;;;2.90;76.46;100559.43;1681808;84;25780;-79
2021/03/22 08:52:36;;;;;;;19.00;7.70;;;;;;;2.94;77.22;100556.84;1703228;83;26410;-79
2021/03/22 08:55:12;;;;;;;14.33;7.42;;;;;;;3.07;77.38;100556.93;1686761;83;25960;-79
2021/03/22 08:58:03;;;;;;;15.28;7.12;;;;;;;3.27;77.08;100552.94;1681604;83;27549;-79
2021/03/22 09:00:46;;;;;;;15.35;6.50;;;;;;;3.47;77.10;100555.41;1681332;83;33008;-80
2021/03/22 09:03:21;;;;;;;14.53;5.80;;;;;;;3.63;76.64;100554.34;1683282;83;26419;-80
2021/03/22 09:06:23;;;;;;;11.90;4.85;;;;;;;3.78;75.83;100556.04;1677058;83;25917;-81
2021/03/22 09:09:02;;;;;;;14.63;5.97;;;;;;;3.79;74.48;100557.69;1650352;84;26020;-80
2021/03/22 09:11:42;;;;;;;8.08;3.58;;;;;;;3.72;74.26;100546.02;1678383;83;27432;-79
2021/03/22 09:14:20;;;;;;;9.53;4.08;;;;;;;3.63;72.67;100549.53;1690577;83;26280;-80
2021/03/22 09:16:50;;;;;;;5.65;2.40;;;;;;;3.55;72.46;100550.22;1695203;83;25648;-80
2021/03/22 09:19:23;;;;;;;6.17;2.60;;;;;;;3.43;71.50;100534.17;1665990;84;25834;-80
2021/03/22 09:22:03;;;;;;;10.98;3.65;;;;;;;3.36;73.23;100541.00;1677584;83;25877;-80
2021/03/22 09:24:45;;;;;;;5.37;3.02;;;;;;;3.42;73.24;100535.13;1685853;84;27548;-80
2021/03/22 09:27:22;;;;;;;5.00;2.05;;;;;;;3.60;73.97;100534.75;1685923;83;25878;-80
2021/03/22 09:30:04;;;;;;;6.05;2.58;;;;;;;3.76;73.56;100530.98;1684918;83;25837;-79
2021/03/22 09:32:41;;;;;;;4.00;1.72;;;;;;;3.88;73.12;100531.66;1687609;84;25779;-80
2021/03/22 09:35:19;;;;;;;6.08;1.95;;;;;;;4.02;72.89;100533.81;1701672;83;26109;-80
2021/03/22 09:37:59;;;;;;;5.00;1.95;;;;;;;4.16;72.29;100532.02;1709038;83;27666;-80
2021/03/22 09:40:33;;;;;;;4.20;1.70;;;;;;;4.28;71.17;100535.30;1685602;83;26175;-79
2021/03/22 09:43:20;;;;;;;5.80;1.87;;;;;;;4.39;71.25;100535.09;1699801;82;25386;-79
2021/03/22 09:46:04;;;;;;;9.48;2.58;;;;;;;4.46;71.33;100532.20;1674357;82;25793;-79
2021/03/22 09:48:41;;;;;;;5.35;2.10;;;;;;;4.54;70.38;100526.97;1722623;82;33476;-79
2021/03/22 09:51:17;;;;;;;5.40;1.72;;;;;;;4.61;69.28;100522.75;1670355;85;28565;-80
2021/03/22 09:53:57;;;;;;;5.00;1.62;;;;;;;4.75;68.61;100526.19;1677532;85;25941;-79
2021/03/22 09:56:33;;;;;;;5.10;1.60;;;;;;;4.89;68.82;100519.05;1662250;84;25783;-80
2021/03/22 09:59:29;;;;;;;4.47;1.95;;;;;;;5.05;68.10;100515.19;1734374;81;25860;-80
2021/03/22 10:02:03;;;;;;;6.58;2.45;;;;;;;5.17;68.54;100516.63;1702956;82;25814;-79
2021/03/22 10:04:35;;;;;;;7.75;2.42;;;;;;;5.29;67.65;100522.02;1709111;82;27577;-79
2021/03/22 10:07:23;;;;;;;2.65;1.20;;;;;;;5.28;66.86;100524.33;1677393;82;25599;-79
2021/03/22 10:10:00;;;;;;;3.40;1.60;;;;;;;5.25;65.83;100530.45;1698554;84;26416;-79
2021/03/22 10:12:41;;;;;;;4.17;1.75;;;;;;;5.28;62.64;100524.84;1684840;83;25775;-79
2021/03/22 10:15:17;;;;;;;3.45;1.65;;;;;;;5.25;62.09;100524.66;1716037;82;25921;-80
2021/03/22 10:17:58;;;;;;;3.83;1.47;;;;;;;5.17;60.51;100534.38;1730716;80;28282;-79
2021/03/22 10:20:44;;;;;;;4.03;2.02;;;;;;;5.14;60.54;100534.19;1718634;82;25373;-79
2021/03/22 10:23:28;;;;;;;3.52;1.90;;;;;;;5.13;60.44;100532.50;1695119;82;25951;-79
2021/03/22 10:26:17;;;;;;;5.62;1.90;;;;;;;5.12;60.59;100533.99;1711594;82;25856;-79
2021/03/22 10:28:45;;;;;;;5.58;2.00;;;;;;;5.07;61.04;100546.39;1705578;81;26174;-79
2021/03/22 10:31:23;;;;;;;4.10;1.92;;;;;;;5.04;59.88;100551.19;1721649;82;27538;-79
2021/03/22 10:33:57;;;;;;;4.10;1.82;;;;;;;4.99;60.55;100536.20;1716165;81;26011;-79
2021/03/22 10:36:32;;;;;;;4.40;1.45;;;;;;;5.07;61.48;100546.91;1704097;81;25401;-79
2021/03/22 10:39:01;;;;;;;4.55;1.72;;;;;;;5.32;63.63;100540.28;1691951;83;25777;-80
2021/03/22 10:41:37;;;;;;;2.83;1.67;;;;;;;5.58;60.61;100529.67;1733092;81;25831;-80
2021/03/22 10:44:15;;;;;;;2.58;1.60;;;;;;;5.55;58.79;100529.17;1703737;82;27544;-79
2021/03/22 10:46:43;;;;;;;4.75;1.77;;;;;;;5.44;59.40;100531.09;1709127;83;26830;-80
2021/03/22 10:49:24;;;;;;;2.45;1.62;;;;;;;5.35;58.04;100533.35;1677518;83;25840;-80
2021/03/22 10:51:54;;;;;;;5.92;1.90;;;;;;;5.35;58.84;100532.02;1698260;83;26818;-79
2021/03/22 10:54:43;;;;;;;5.97;1.70;;;;;;;5.42;60.59;100530.42;1690939;84;25865;-80
2021/03/22 10:57:28;;;;;;;4.60;1.95;;;;;;;5.41;60.14;100529.23;1703385;82;27674;-80
2021/03/22 11:00:02;;;;;;;3.20;1.47;;;;;;;5.31;58.47;100523.19;1720938;82;25438;-81
2021/03/22 11:02:36;;;;;;;3.35;1.67;;;;;;;5.34;59.38;100525.06;1730041;81;25881;-81
2021/03/22 11:05:12;;;;;;;5.85;2.10;;;;;;;5.46;58.77;100525.14;1701537;82;25739;-80
2021/03/22 11:07:40;;;;;;;5.92;2.33;;;;;;;5.59;60.18;100521.22;1685281;84;26674;-79
2021/03/22 11:10:19;;;;;;;5.20;2.30;;;;;;;5.84;59.80;100517.25;1706384;83;27074;-80
2021/03/22 11:12:50;;;;;;;3.50;1.77;;;;;;;6.04;57.54;100521.84;1706836;83;25775;-80
2021/03/22 11:15:31;;;;;;;5.65;2.27;;;;;;;6.20;57.53;100519.26;1651269;84;25842;-79
2021/03/22 11:18:01;;;;;;;5.33;1.98;;;;;;;6.20;59.41;100519.26;1693427;83;25987;-82
2021/03/22 11:20:29;;;;;;;7.00;2.33;;;;;;;6.17;58.77;100526.21;1682175;83;25849;-80
2021/03/22 11:23:26;;;;;;;5.25;2.17;;;;;;;6.12;56.65;100526.69;1714721;83;27638;-80
2021/03/22 11:25:49;;;;;;;4.53;2.20;;;;;;;5.97;56.27;100530.09;1712194;81;26449;-80
2021/03/22 11:28:22;;;;;;;7.72;2.55;;;;;;;5.81;57.00;100537.97;1664594;83;25964;-79
2021/03/22 11:30:58;;;;;;;2.98;1.70;;;;;;;5.73;56.81;100540.07;1667707;83;25880;-80
2021/03/22 11:33:31;;;;;;;8.10;2.60;;;;;;;5.74;57.12;100532.94;1703496;83;25621;-80
2021/03/22 11:36:07;;;;;;;4.42;2.00;;;;;;;5.88;57.37;100527.90;1676285;84;27618;-82
2021/03/22 11:38:45;;;;;;;5.72;1.95;;;;;;;6.02;56.18;100534.45;1685480;83;26087;-82
2021/03/22 11:41:38;;;;;;;6.92;2.80;;;;;;;6.18;57.71;100531.36;1676877;83;25836;-82
2021/03/22 11:44:25;;;;;;;4.25;2.55;;;;;;;6.29;57.62;100526.77;1697450;83;25877;-80
2021/03/22 11:46:57;;;;;;;5.95;2.08;;;;;;;6.31;56.48;100523.45;1654496;85;25823;-80
2021/03/22 11:49:42;;;;;;;9.38;3.30;;;;;;;6.43;56.99;100523.48;1658971;85;27542;-79
2021/03/22 11:52:26;;;;;;;7.58;3.10;;;;;;;6.55;56.88;100524.83;1654432;83;26384;-80
2021/03/22 11:55:04;;;;;;;5.40;2.90;;;;;;;6.70;56.04;100521.38;1693338;83;25936;-79
2021/03/22 11:57:36;;;;;;;7.10;3.02;;;;;;;6.60;57.40;100523.37;1682648;83;25803;-80
2021/03/22 12:00:27;;;;;;;5.40;2.90;;;;;;;6.49;57.91;100520.16;1675226;83;25851;-80
2021/03/22 12:03:07;;;;;;;3.05;1.65;;;;;;;6.40;57.00;100531.77;1680509;83;33001;-80
2021/03/22 12:05:41;;;;;;;5.78;1.92;;;;;;;6.26;52.36;100525.75;1689233;83;25936;-80
2021/03/22 12:08:39;;;;;;;4.53;2.22;;;;;;;6.19;52.39;100514.43;1675114;83;25899;-80
2021/03/22 12:11:24;;;;;;;5.67;2.17;;;;;;;6.20;54.52;100520.59;1647336;85;26428;-80